メインページ
METAR-TAF:

METAR-TAF

空港 :

オデッサ, ウクライナ

オデッサ国際空港

緯度: 46-26N, 経度: 030-46E, 海抜: 42m

現時点の気象観測

当レポートは32分前の11:30(UTC)に作成
北西の風 10kt
気温 12°C
湿度 58%
気圧 1008 hPa
視程10km以上
高度2300ftの雲はほとんどない, 積乱雲.
高度3600ftの雲は散在している
高度5300ftの千切れ雲あり

METAR: UKOO 231130Z 31005MPS 9999 FEW023CB SCT036 BKN053 12/04 Q1008 R34/090060 NOSIG

時間: 15:02 (12:02 UTC)

予報

当レポートは54分前の11:08(UTC)に作成
予報は23日の 12時(UTC)から 24日の 12時(UTC)まで有効
北西の風 6kt
視程: 2100m
高度700ftの千切れ雲あり
高度1500ftの雲は散在している, 積乱雲.
弱いにわか雨, 靄
23日の 12時(UTC)から 23日の 20時(UTC)まで一時的に
西の風 14kt、最大27ktの突風を伴う
23日の 20時(UTC)から 23日の 22時(UTC)まで徐々に
北西の風 12kt、最大25ktの突風を伴う
視程: 6000m

TAF: UKOO 231108Z 2312/2412 32003MPS 2100 -SHRA BR BKN007 SCT015CB TEMPO 2312/2320 27007G14MPS BECMG 2320/2322 32006G13MPS 6000 NSW TX12/2313Z TN02/2402Z

4,000以上の空港の気象観測と天気予報(METAR報とTAF報)

利用可能な観測所は地図上に黄色い丸と赤い丸で示す。

丸の上にカーソルを重ねると観測所名を参照できる。

次にクリックすると気象観測と天気予報を参照できる。

マップの切り替え:黒色「×」印の緑ボタンをクリックして拡大、「-」印の緑ボタンをクリックして縮小、緑色の三角印をクリックして隣りの地図に切り替え


METAR-TAF: